sensor_id;sensor_type;location;lat;lon;timestamp;P1;durP1;ratioP1;P2;durP2;ratioP2
20251;SDS011;10284;58.364;15.550;2023-05-17T00:01:30;12.52;;;10.77;;
20251;SDS011;10284;58.364;15.550;2023-05-17T00:03:55;11.55;;;10.02;;
20251;SDS011;10284;58.364;15.550;2023-05-17T00:06:21;12.90;;;10.43;;
20251;SDS011;10284;58.364;15.550;2023-05-17T00:08:46;13.77;;;10.57;;
20251;SDS011;10284;58.364;15.550;2023-05-17T00:11:12;16.25;;;10.63;;
20251;SDS011;10284;58.364;15.550;2023-05-17T00:13:37;13.25;;;10.30;;
20251;SDS011;10284;58.364;15.550;2023-05-17T00:16:03;15.23;;;10.82;;
20251;SDS011;10284;58.364;15.550;2023-05-17T00:18:29;14.40;;;10.68;;
20251;SDS011;10284;58.364;15.550;2023-05-17T00:20:55;14.27;;;10.57;;
20251;SDS011;10284;58.364;15.550;2023-05-17T00:23:21;12.00;;;9.98;;
20251;SDS011;10284;58.364;15.550;2023-05-17T00:25:46;14.52;;;10.93;;
20251;SDS011;10284;58.364;15.550;2023-05-17T00:28:12;13.05;;;10.23;;
20251;SDS011;10284;58.364;15.550;2023-05-17T00:30:37;14.43;;;10.70;;
20251;SDS011;10284;58.364;15.550;2023-05-17T00:33:02;15.32;;;11.15;;
20251;SDS011;10284;58.364;15.550;2023-05-17T00:35:28;14.32;;;11.13;;
20251;SDS011;10284;58.364;15.550;2023-05-17T00:37:54;16.13;;;10.63;;
20251;SDS011;10284;58.364;15.550;2023-05-17T00:40:20;15.10;;;11.75;;
20251;SDS011;10284;58.364;15.550;2023-05-17T00:42:45;17.13;;;11.77;;
20251;SDS011;10284;58.364;15.550;2023-05-17T00:45:11;16.27;;;11.02;;
20251;SDS011;10284;58.364;15.550;2023-05-17T00:47:36;18.73;;;11.52;;
20251;SDS011;10284;58.364;15.550;2023-05-17T00:50:02;14.93;;;11.70;;
20251;SDS011;10284;58.364;15.550;2023-05-17T00:52:29;14.23;;;11.32;;
20251;SDS011;10284;58.364;15.550;2023-05-17T00:54:54;14.75;;;11.30;;
20251;SDS011;10284;58.364;15.550;2023-05-17T00:57:19;18.98;;;12.52;;
20251;SDS011;10284;58.364;15.550;2023-05-17T00:59:45;16.13;;;11.95;;
20251;SDS011;10284;58.364;15.550;2023-05-17T01:02:11;16.52;;;12.25;;
20251;SDS011;10284;58.364;15.550;2023-05-17T01:04:37;15.85;;;11.30;;
20251;SDS011;10284;58.364;15.550;2023-05-17T01:07:03;18.50;;;11.98;;
20251;SDS011;10284;58.364;15.550;2023-05-17T01:09:28;19.23;;;13.02;;
20251;SDS011;10284;58.364;15.550;2023-05-17T01:12:04;18.90;;;12.05;;
20251;SDS011;10284;58.364;15.550;2023-05-17T01:17:35;15.05;;;12.02;;
20251;SDS011;10284;58.364;15.550;2023-05-17T01:28:37;20.45;;;13.18;;
20251;SDS011;10284;58.364;15.550;2023-05-17T01:31:03;17.63;;;12.93;;
20251;SDS011;10284;58.364;15.550;2023-05-17T01:33:29;15.90;;;12.80;;
20251;SDS011;10284;58.364;15.550;2023-05-17T01:35:55;19.15;;;12.82;;
20251;SDS011;10284;58.364;15.550;2023-05-17T01:38:20;17.52;;;12.75;;
20251;SDS011;10284;58.364;15.550;2023-05-17T01:40:47;19.08;;;13.48;;
20251;SDS011;10284;58.364;15.550;2023-05-17T01:43:20;19.35;;;13.35;;
20251;SDS011;10284;58.364;15.550;2023-05-17T01:45:59;18.25;;;13.23;;
20251;SDS011;10284;58.364;15.550;2023-05-17T01:48:59;25.17;;;13.73;;
20251;SDS011;10284;58.364;15.550;2023-05-17T01:52:10;22.05;;;14.45;;
20251;SDS011;10284;58.364;15.550;2023-05-17T01:54:38;21.77;;;14.02;;
20251;SDS011;10284;58.364;15.550;2023-05-17T01:57:11;21.88;;;14.10;;
20251;SDS011;10284;58.364;15.550;2023-05-17T01:59:37;22.70;;;15.43;;
20251;SDS011;10284;58.364;15.550;2023-05-17T02:02:04;22.25;;;15.10;;
20251;SDS011;10284;58.364;15.550;2023-05-17T02:04:33;22.50;;;14.70;;
20251;SDS011;10284;58.364;15.550;2023-05-17T02:07:00;22.60;;;15.07;;
20251;SDS011;10284;58.364;15.550;2023-05-17T02:09:26;22.15;;;14.73;;
20251;SDS011;10284;58.364;15.550;2023-05-17T02:11:51;20.50;;;15.05;;
20251;SDS011;10284;58.364;15.550;2023-05-17T02:14:17;22.02;;;14.95;;
20251;SDS011;10284;58.364;15.550;2023-05-17T02:16:42;22.67;;;14.57;;
20251;SDS011;10284;58.364;15.550;2023-05-17T02:19:08;21.13;;;14.57;;
20251;SDS011;10284;58.364;15.550;2023-05-17T02:21:33;18.75;;;14.00;;
20251;SDS011;10284;58.364;15.550;2023-05-17T02:24:00;23.30;;;13.60;;
20251;SDS011;10284;58.364;15.550;2023-05-17T02:26:26;21.83;;;14.63;;
20251;SDS011;10284;58.364;15.550;2023-05-17T02:28:52;20.33;;;13.77;;
20251;SDS011;10284;58.364;15.550;2023-05-17T02:31:17;23.48;;;14.25;;
20251;SDS011;10284;58.364;15.550;2023-05-17T02:33:43;17.90;;;13.65;;
20251;SDS011;10284;58.364;15.550;2023-05-17T02:36:08;22.08;;;13.32;;
20251;SDS011;10284;58.364;15.550;2023-05-17T02:38:33;20.38;;;12.52;;
20251;SDS011;10284;58.364;15.550;2023-05-17T02:40:59;19.40;;;12.75;;
20251;SDS011;10284;58.364;15.550;2023-05-17T02:43:24;20.35;;;12.57;;
20251;SDS011;10284;58.364;15.550;2023-05-17T02:45:50;18.95;;;11.40;;
20251;SDS011;10284;58.364;15.550;2023-05-17T02:48:15;16.42;;;11.43;;
20251;SDS011;10284;58.364;15.550;2023-05-17T02:50:40;22.42;;;12.73;;
20251;SDS011;10284;58.364;15.550;2023-05-17T02:53:06;19.13;;;11.05;;
20251;SDS011;10284;58.364;15.550;2023-05-17T02:55:31;18.95;;;10.95;;
20251;SDS011;10284;58.364;15.550;2023-05-17T02:57:57;19.45;;;10.82;;
20251;SDS011;10284;58.364;15.550;2023-05-17T03:00:22;17.23;;;10.32;;
20251;SDS011;10284;58.364;15.550;2023-05-17T03:02:48;16.83;;;10.68;;
20251;SDS011;10284;58.364;15.550;2023-05-17T03:05:14;16.80;;;9.93;;
20251;SDS011;10284;58.364;15.550;2023-05-17T03:07:39;18.55;;;9.63;;
20251;SDS011;10284;58.364;15.550;2023-05-17T03:10:05;15.13;;;8.80;;
20251;SDS011;10284;58.364;15.550;2023-05-17T03:12:31;14.88;;;9.68;;
20251;SDS011;10284;58.364;15.550;2023-05-17T03:14:57;14.55;;;8.88;;
20251;SDS011;10284;58.364;15.550;2023-05-17T03:17:22;12.45;;;8.48;;
20251;SDS011;10284;58.364;15.550;2023-05-17T03:19:48;15.98;;;9.73;;
20251;SDS011;10284;58.364;15.550;2023-05-17T03:22:13;14.55;;;9.45;;
20251;SDS011;10284;58.364;15.550;2023-05-17T03:24:39;16.35;;;9.88;;
20251;SDS011;10284;58.364;15.550;2023-05-17T03:27:04;4.80;;;3.25;;
20251;SDS011;10284;58.364;15.550;2023-05-17T03:29:30;3.65;;;2.88;;
20251;SDS011;10284;58.364;15.550;2023-05-17T03:31:55;4.22;;;2.40;;
20251;SDS011;10284;58.364;15.550;2023-05-17T03:34:21;2.40;;;2.10;;
20251;SDS011;10284;58.364;15.550;2023-05-17T03:36:46;2.28;;;1.90;;
20251;SDS011;10284;58.364;15.550;2023-05-17T03:39:11;3.63;;;2.00;;
20251;SDS011;10284;58.364;15.550;2023-05-17T03:41:37;3.00;;;2.17;;
20251;SDS011;10284;58.364;15.550;2023-05-17T03:44:02;2.20;;;1.98;;
20251;SDS011;10284;58.364;15.550;2023-05-17T03:46:28;2.67;;;2.38;;
20251;SDS011;10284;58.364;15.550;2023-05-17T03:48:53;3.00;;;2.28;;
20251;SDS011;10284;58.364;15.550;2023-05-17T03:51:19;5.45;;;2.28;;
20251;SDS011;10284;58.364;15.550;2023-05-17T03:53:44;4.40;;;2.72;;
20251;SDS011;10284;58.364;15.550;2023-05-17T03:56:10;4.00;;;2.05;;
20251;SDS011;10284;58.364;15.550;2023-05-17T03:58:35;2.88;;;2.38;;
20251;SDS011;10284;58.364;15.550;2023-05-17T04:01:01;3.38;;;1.85;;
20251;SDS011;10284;58.364;15.550;2023-05-17T04:03:27;2.10;;;1.90;;
20251;SDS011;10284;58.364;15.550;2023-05-17T04:05:53;3.60;;;2.20;;
20251;SDS011;10284;58.364;15.550;2023-05-17T04:08:24;3.08;;;2.28;;
20251;SDS011;10284;58.364;15.550;2023-05-17T04:10:49;3.42;;;2.40;;
20251;SDS011;10284;58.364;15.550;2023-05-17T04:13:15;4.00;;;2.28;;
20251;SDS011;10284;58.364;15.550;2023-05-17T04:15:40;4.05;;;2.40;;
20251;SDS011;10284;58.364;15.550;2023-05-17T04:18:06;5.28;;;2.67;;
20251;SDS011;10284;58.364;15.550;2023-05-17T04:20:31;3.72;;;2.53;;
20251;SDS011;10284;58.364;15.550;2023-05-17T04:22:57;3.75;;;2.40;;
20251;SDS011;10284;58.364;15.550;2023-05-17T04:25:23;3.22;;;2.30;;
20251;SDS011;10284;58.364;15.550;2023-05-17T04:27:48;3.88;;;2.30;;
20251;SDS011;10284;58.364;15.550;2023-05-17T04:30:14;2.83;;;2.20;;
20251;SDS011;10284;58.364;15.550;2023-05-17T04:32:40;2.55;;;2.10;;
20251;SDS011;10284;58.364;15.550;2023-05-17T04:35:07;2.85;;;2.25;;
20251;SDS011;10284;58.364;15.550;2023-05-17T04:37:32;2.28;;;2.08;;
20251;SDS011;10284;58.364;15.550;2023-05-17T04:39:58;3.90;;;2.05;;
20251;SDS011;10284;58.364;15.550;2023-05-17T04:42:23;2.97;;;2.25;;
20251;SDS011;10284;58.364;15.550;2023-05-17T04:44:49;3.33;;;2.55;;
20251;SDS011;10284;58.364;15.550;2023-05-17T04:47:14;2.33;;;2.10;;
20251;SDS011;10284;58.364;15.550;2023-05-17T04:49:40;3.08;;;2.17;;
20251;SDS011;10284;58.364;15.550;2023-05-17T04:52:05;2.72;;;2.47;;
20251;SDS011;10284;58.364;15.550;2023-05-17T04:54:31;4.28;;;2.17;;
20251;SDS011;10284;58.364;15.550;2023-05-17T04:56:56;3.30;;;2.33;;
20251;SDS011;10284;58.364;15.550;2023-05-17T04:59:22;3.13;;;1.98;;
20251;SDS011;10284;58.364;15.550;2023-05-17T05:01:47;2.75;;;1.98;;
20251;SDS011;10284;58.364;15.550;2023-05-17T05:04:13;2.55;;;1.80;;
20251;SDS011;10284;58.364;15.550;2023-05-17T05:06:38;2.58;;;1.77;;
20251;SDS011;10284;58.364;15.550;2023-05-17T05:09:04;2.85;;;1.95;;
20251;SDS011;10284;58.364;15.550;2023-05-17T05:11:30;3.30;;;2.15;;
20251;SDS011;10284;58.364;15.550;2023-05-17T05:13:56;2.55;;;1.80;;
20251;SDS011;10284;58.364;15.550;2023-05-17T05:16:22;2.47;;;1.80;;
20251;SDS011;10284;58.364;15.550;2023-05-17T05:18:50;2.95;;;1.83;;
20251;SDS011;10284;58.364;15.550;2023-05-17T05:21:16;7.35;;;2.20;;
20251;SDS011;10284;58.364;15.550;2023-05-17T05:23:41;2.72;;;1.92;;
20251;SDS011;10284;58.364;15.550;2023-05-17T05:26:07;3.92;;;1.95;;
20251;SDS011;10284;58.364;15.550;2023-05-17T05:28:32;2.42;;;1.75;;
20251;SDS011;10284;58.364;15.550;2023-05-17T05:30:58;3.08;;;1.92;;
20251;SDS011;10284;58.364;15.550;2023-05-17T05:33:24;3.20;;;2.00;;
20251;SDS011;10284;58.364;15.550;2023-05-17T05:35:50;2.10;;;1.80;;
20251;SDS011;10284;58.364;15.550;2023-05-17T05:38:15;2.08;;;1.58;;
20251;SDS011;10284;58.364;15.550;2023-05-17T05:40:41;3.22;;;1.90;;
20251;SDS011;10284;58.364;15.550;2023-05-17T05:43:06;2.45;;;1.83;;
20251;SDS011;10284;58.364;15.550;2023-05-17T05:45:32;2.45;;;2.00;;
20251;SDS011;10284;58.364;15.550;2023-05-17T05:47:57;2.15;;;1.77;;
20251;SDS011;10284;58.364;15.550;2023-05-17T05:50:23;2.10;;;1.70;;
20251;SDS011;10284;58.364;15.550;2023-05-17T05:52:48;1.98;;;1.80;;
20251;SDS011;10284;58.364;15.550;2023-05-17T05:55:13;3.58;;;1.98;;
20251;SDS011;10284;58.364;15.550;2023-05-17T05:57:39;2.20;;;1.80;;
20251;SDS011;10284;58.364;15.550;2023-05-17T06:00:04;3.42;;;2.05;;
20251;SDS011;10284;58.364;15.550;2023-05-17T06:02:31;1.98;;;1.77;;
20251;SDS011;10284;58.364;15.550;2023-05-17T06:04:57;3.85;;;2.00;;
20251;SDS011;10284;58.364;15.550;2023-05-17T06:07:22;2.08;;;1.88;;
20251;SDS011;10284;58.364;15.550;2023-05-17T06:09:48;3.40;;;2.10;;
20251;SDS011;10284;58.364;15.550;2023-05-17T06:12:13;3.00;;;2.40;;
20251;SDS011;10284;58.364;15.550;2023-05-17T06:14:39;3.25;;;2.10;;
20251;SDS011;10284;58.364;15.550;2023-05-17T06:17:04;2.20;;;1.90;;
20251;SDS011;10284;58.364;15.550;2023-05-17T06:19:30;3.63;;;2.30;;
20251;SDS011;10284;58.364;15.550;2023-05-17T06:21:55;2.97;;;2.30;;
20251;SDS011;10284;58.364;15.550;2023-05-17T06:24:20;4.70;;;2.60;;
20251;SDS011;10284;58.364;15.550;2023-05-17T06:26:46;6.32;;;2.20;;
20251;SDS011;10284;58.364;15.550;2023-05-17T06:29:12;2.85;;;2.20;;
20251;SDS011;10284;58.364;15.550;2023-05-17T06:31:37;3.00;;;2.10;;
20251;SDS011;10284;58.364;15.550;2023-05-17T06:34:03;4.47;;;2.70;;
20251;SDS011;10284;58.364;15.550;2023-05-17T06:36:28;2.95;;;2.20;;
20251;SDS011;10284;58.364;15.550;2023-05-17T06:38:54;4.95;;;2.47;;
20251;SDS011;10284;58.364;15.550;2023-05-17T06:41:19;3.70;;;2.22;;
20251;SDS011;10284;58.364;15.550;2023-05-17T06:43:45;4.85;;;2.30;;
20251;SDS011;10284;58.364;15.550;2023-05-17T06:46:10;2.75;;;2.00;;
20251;SDS011;10284;58.364;15.550;2023-05-17T06:48:36;5.07;;;2.83;;
20251;SDS011;10284;58.364;15.550;2023-05-17T06:51:01;2.80;;;2.50;;
20251;SDS011;10284;58.364;15.550;2023-05-17T06:53:27;3.60;;;2.50;;
20251;SDS011;10284;58.364;15.550;2023-05-17T06:55:52;1.98;;;0.90;;
20251;SDS011;10284;58.364;15.550;2023-05-17T06:58:18;1.50;;;0.90;;
20251;SDS011;10284;58.364;15.550;2023-05-17T07:00:43;0.85;;;0.60;;
20251;SDS011;10284;58.364;15.550;2023-05-17T07:03:08;2.50;;;0.45;;
20251;SDS011;10284;58.364;15.550;2023-05-17T07:05:34;1.55;;;0.60;;
20251;SDS011;10284;58.364;15.550;2023-05-17T07:08:00;0.82;;;0.50;;
20251;SDS011;10284;58.364;15.550;2023-05-17T07:10:25;3.03;;;0.60;;
20251;SDS011;10284;58.364;15.550;2023-05-17T07:12:51;0.95;;;0.52;;
20251;SDS011;10284;58.364;15.550;2023-05-17T07:15:16;0.30;;;0.28;;
20251;SDS011;10284;58.364;15.550;2023-05-17T07:17:42;5.75;;;0.65;;
20251;SDS011;10284;58.364;15.550;2023-05-17T07:20:07;0.40;;;0.40;;
20251;SDS011;10284;58.364;15.550;2023-05-17T07:22:33;1.38;;;0.30;;
20251;SDS011;10284;58.364;15.550;2023-05-17T07:25:00;1.20;;;0.40;;
20251;SDS011;10284;58.364;15.550;2023-05-17T07:27:25;0.32;;;0.32;;
20251;SDS011;10284;58.364;15.550;2023-05-17T07:29:51;0.30;;;0.30;;
20251;SDS011;10284;58.364;15.550;2023-05-17T07:32:16;0.50;;;0.40;;
20251;SDS011;10284;58.364;15.550;2023-05-17T07:34:42;1.65;;;0.40;;
20251;SDS011;10284;58.364;15.550;2023-05-17T07:37:07;1.42;;;0.57;;
20251;SDS011;10284;58.364;15.550;2023-05-17T07:39:33;4.97;;;0.50;;
20251;SDS011;10284;58.364;15.550;2023-05-17T07:41:58;2.58;;;0.50;;
20251;SDS011;10284;58.364;15.550;2023-05-17T07:44:24;0.95;;;0.35;;
20251;SDS011;10284;58.364;15.550;2023-05-17T07:46:49;0.38;;;0.38;;
20251;SDS011;10284;58.364;15.550;2023-05-17T07:49:15;0.85;;;0.50;;
20251;SDS011;10284;58.364;15.550;2023-05-17T07:51:40;0.75;;;0.47;;
20251;SDS011;10284;58.364;15.550;2023-05-17T07:54:06;0.30;;;0.30;;
20251;SDS011;10284;58.364;15.550;2023-05-17T07:56:31;0.85;;;0.20;;
20251;SDS011;10284;58.364;15.550;2023-05-17T07:58:57;0.30;;;0.30;;
20251;SDS011;10284;58.364;15.550;2023-05-17T08:01:23;0.32;;;0.30;;
20251;SDS011;10284;58.364;15.550;2023-05-17T08:03:48;0.30;;;0.30;;
20251;SDS011;10284;58.364;15.550;2023-05-17T08:06:14;0.40;;;0.40;;
20251;SDS011;10284;58.364;15.550;2023-05-17T08:08:40;2.67;;;0.40;;
20251;SDS011;10284;58.364;15.550;2023-05-17T08:11:06;0.52;;;0.30;;
20251;SDS011;10284;58.364;15.550;2023-05-17T08:13:33;0.75;;;0.40;;
20251;SDS011;10284;58.364;15.550;2023-05-17T08:15:58;0.35;;;0.35;;
20251;SDS011;10284;58.364;15.550;2023-05-17T08:18:28;0.20;;;0.20;;
20251;SDS011;10284;58.364;15.550;2023-05-17T08:20:54;3.10;;;0.68;;
20251;SDS011;10284;58.364;15.550;2023-05-17T08:23:19;0.25;;;0.25;;
20251;SDS011;10284;58.364;15.550;2023-05-17T08:25:44;1.92;;;0.30;;
20251;SDS011;10284;58.364;15.550;2023-05-17T08:28:10;0.60;;;0.30;;
20251;SDS011;10284;58.364;15.550;2023-05-17T08:30:36;0.93;;;0.40;;
20251;SDS011;10284;58.364;15.550;2023-05-17T08:33:01;1.55;;;0.45;;
20251;SDS011;10284;58.364;15.550;2023-05-17T08:35:27;0.50;;;0.30;;
20251;SDS011;10284;58.364;15.550;2023-05-17T08:37:52;2.45;;;0.50;;
20251;SDS011;10284;58.364;15.550;2023-05-17T08:40:19;1.52;;;0.40;;
20251;SDS011;10284;58.364;15.550;2023-05-17T08:42:45;0.30;;;0.30;;
20251;SDS011;10284;58.364;15.550;2023-05-17T08:45:11;1.08;;;0.30;;
20251;SDS011;10284;58.364;15.550;2023-05-17T08:47:37;0.20;;;0.20;;
20251;SDS011;10284;58.364;15.550;2023-05-17T08:50:04;0.52;;;0.30;;
20251;SDS011;10284;58.364;15.550;2023-05-17T08:52:30;0.45;;;0.20;;
20251;SDS011;10284;58.364;15.550;2023-05-17T08:54:56;0.95;;;0.20;;
20251;SDS011;10284;58.364;15.550;2023-05-17T08:57:23;0.93;;;0.30;;
20251;SDS011;10284;58.364;15.550;2023-05-17T08:59:48;0.20;;;0.20;;
20251;SDS011;10284;58.364;15.550;2023-05-17T09:02:16;1.48;;;0.30;;
20251;SDS011;10284;58.364;15.550;2023-05-17T09:04:41;0.73;;;0.30;;
20251;SDS011;10284;58.364;15.550;2023-05-17T09:07:07;0.38;;;0.32;;
20251;SDS011;10284;58.364;15.550;2023-05-17T09:09:32;0.70;;;0.30;;
20251;SDS011;10284;58.364;15.550;2023-05-17T09:11:59;0.20;;;0.20;;
20251;SDS011;10284;58.364;15.550;2023-05-17T09:14:31;0.22;;;0.22;;
20251;SDS011;10284;58.364;15.550;2023-05-17T09:16:59;0.40;;;0.30;;
20251;SDS011;10284;58.364;15.550;2023-05-17T09:19:25;0.30;;;0.30;;
20251;SDS011;10284;58.364;15.550;2023-05-17T09:21:50;0.68;;;0.20;;
20251;SDS011;10284;58.364;15.550;2023-05-17T09:24:18;2.75;;;0.38;;
20251;SDS011;10284;58.364;15.550;2023-05-17T09:26:51;0.52;;;0.35;;
20251;SDS011;10284;58.364;15.550;2023-05-17T09:29:17;0.80;;;0.38;;
20251;SDS011;10284;58.364;15.550;2023-05-17T09:31:43;0.30;;;0.30;;
20251;SDS011;10284;58.364;15.550;2023-05-17T09:34:09;0.40;;;0.40;;
20251;SDS011;10284;58.364;15.550;2023-05-17T09:36:41;0.38;;;0.38;;
20251;SDS011;10284;58.364;15.550;2023-05-17T09:39:07;2.67;;;0.40;;
20251;SDS011;10284;58.364;15.550;2023-05-17T09:41:39;0.40;;;0.40;;
20251;SDS011;10284;58.364;15.550;2023-05-17T09:44:07;2.45;;;0.50;;
20251;SDS011;10284;58.364;15.550;2023-05-17T09:46:33;1.92;;;0.40;;
20251;SDS011;10284;58.364;15.550;2023-05-17T09:49:00;1.35;;;0.30;;
20251;SDS011;10284;58.364;15.550;2023-05-17T09:51:33;1.65;;;0.40;;
20251;SDS011;10284;58.364;15.550;2023-05-17T09:53:59;0.38;;;0.38;;
20251;SDS011;10284;58.364;15.550;2023-05-17T09:56:28;0.70;;;0.45;;
20251;SDS011;10284;58.364;15.550;2023-05-17T09:58:54;1.27;;;0.55;;
20251;SDS011;10284;58.364;15.550;2023-05-17T10:01:20;1.05;;;0.55;;
20251;SDS011;10284;58.364;15.550;2023-05-17T10:03:46;1.50;;;0.60;;
20251;SDS011;10284;58.364;15.550;2023-05-17T10:06:11;1.55;;;0.50;;
20251;SDS011;10284;58.364;15.550;2023-05-17T10:08:40;2.30;;;0.55;;
20251;SDS011;10284;58.364;15.550;2023-05-17T10:11:09;0.85;;;0.40;;
20251;SDS011;10284;58.364;15.550;2023-05-17T10:13:36;1.63;;;0.60;;
20251;SDS011;10284;58.364;15.550;2023-05-17T10:16:06;0.50;;;0.50;;
20251;SDS011;10284;58.364;15.550;2023-05-17T10:18:32;0.43;;;0.32;;
20251;SDS011;10284;58.364;15.550;2023-05-17T10:20:57;1.73;;;0.50;;
20251;SDS011;10284;58.364;15.550;2023-05-17T10:23:24;0.50;;;0.50;;
20251;SDS011;10284;58.364;15.550;2023-05-17T10:25:50;0.40;;;0.40;;
20251;SDS011;10284;58.364;15.550;2023-05-17T10:28:16;0.57;;;0.30;;
20251;SDS011;10284;58.364;15.550;2023-05-17T10:30:42;1.35;;;0.40;;
20251;SDS011;10284;58.364;15.550;2023-05-17T10:33:08;0.45;;;0.45;;
20251;SDS011;10284;58.364;15.550;2023-05-17T10:35:34;1.83;;;0.40;;
20251;SDS011;10284;58.364;15.550;2023-05-17T10:38:00;2.35;;;0.60;;
20251;SDS011;10284;58.364;15.550;2023-05-17T10:40:25;0.40;;;0.40;;
20251;SDS011;10284;58.364;15.550;2023-05-17T10:42:53;1.23;;;0.40;;
20251;SDS011;10284;58.364;15.550;2023-05-17T10:45:19;1.27;;;0.57;;
20251;SDS011;10284;58.364;15.550;2023-05-17T10:47:46;2.00;;;0.63;;
20251;SDS011;10284;58.364;15.550;2023-05-17T10:50:12;1.30;;;0.55;;
20251;SDS011;10284;58.364;15.550;2023-05-17T10:52:44;2.17;;;0.70;;
20251;SDS011;10284;58.364;15.550;2023-05-17T10:55:11;0.98;;;0.60;;
20251;SDS011;10284;58.364;15.550;2023-05-17T10:57:37;3.22;;;0.80;;
20251;SDS011;10284;58.364;15.550;2023-05-17T11:00:03;2.65;;;1.00;;
20251;SDS011;10284;58.364;15.550;2023-05-17T11:02:31;1.58;;;0.80;;
20251;SDS011;10284;58.364;15.550;2023-05-17T11:04:57;0.95;;;0.50;;
20251;SDS011;10284;58.364;15.550;2023-05-17T11:07:30;0.43;;;0.43;;
20251;SDS011;10284;58.364;15.550;2023-05-17T11:13:03;0.40;;;0.40;;
20251;SDS011;10284;58.364;15.550;2023-05-17T11:15:22;1.30;;;0.70;;
20251;SDS011;10284;58.364;15.550;2023-05-17T11:17:50;0.60;;;0.60;;
20251;SDS011;10284;58.364;15.550;2023-05-17T11:22:59;0.90;;;0.68;;
20251;SDS011;10284;58.364;15.550;2023-05-17T11:25:32;1.17;;;0.57;;
20251;SDS011;10284;58.364;15.550;2023-05-17T11:27:59;0.98;;;0.55;;
20251;SDS011;10284;58.364;15.550;2023-05-17T11:30:26;2.75;;;0.63;;
20251;SDS011;10284;58.364;15.550;2023-05-17T11:33:03;0.60;;;0.60;;
20251;SDS011;10284;58.364;15.550;2023-05-17T11:35:34;0.60;;;0.50;;
20251;SDS011;10284;58.364;15.550;2023-05-17T11:40:38;0.50;;;0.50;;
20251;SDS011;10284;58.364;15.550;2023-05-17T11:43:17;0.40;;;0.32;;
20251;SDS011;10284;58.364;15.550;2023-05-17T11:45:47;2.53;;;0.57;;
20251;SDS011;10284;58.364;15.550;2023-05-17T11:48:15;0.65;;;0.47;;
20251;SDS011;10284;58.364;15.550;2023-05-17T11:50:41;0.77;;;0.50;;
20251;SDS011;10284;58.364;15.550;2023-05-17T11:53:07;1.15;;;0.40;;
20251;SDS011;10284;58.364;15.550;2023-05-17T11:55:36;0.70;;;0.50;;
20251;SDS011;10284;58.364;15.550;2023-05-17T11:58:07;0.80;;;0.50;;
20251;SDS011;10284;58.364;15.550;2023-05-17T12:00:33;1.05;;;0.52;;
20251;SDS011;10284;58.364;15.550;2023-05-17T12:05:47;0.77;;;0.45;;
20251;SDS011;10284;58.364;15.550;2023-05-17T12:08:17;1.25;;;0.60;;
20251;SDS011;10284;58.364;15.550;2023-05-17T12:10:48;0.50;;;0.50;;
20251;SDS011;10284;58.364;15.550;2023-05-17T12:13:14;0.50;;;0.50;;
20251;SDS011;10284;58.364;15.550;2023-05-17T12:15:40;0.85;;;0.75;;
20251;SDS011;10284;58.364;15.550;2023-05-17T12:18:09;1.25;;;0.57;;
20251;SDS011;10284;58.364;15.550;2023-05-17T12:20:35;1.20;;;0.73;;
20251;SDS011;10284;58.364;15.550;2023-05-17T12:23:02;1.08;;;0.50;;
20251;SDS011;10284;58.364;15.550;2023-05-17T12:25:28;0.57;;;0.52;;
20251;SDS011;10284;58.364;15.550;2023-05-17T12:28:15;1.15;;;0.60;;
20251;SDS011;10284;58.364;15.550;2023-05-17T12:30:45;1.33;;;0.40;;
20251;SDS011;10284;58.364;15.550;2023-05-17T12:33:16;0.52;;;0.50;;
20251;SDS011;10284;58.364;15.550;2023-05-17T12:35:42;0.95;;;0.40;;
20251;SDS011;10284;58.364;15.550;2023-05-17T12:38:07;0.40;;;0.40;;
20251;SDS011;10284;58.364;15.550;2023-05-17T12:40:34;1.45;;;0.57;;
20251;SDS011;10284;58.364;15.550;2023-05-17T12:43:00;2.55;;;0.57;;
20251;SDS011;10284;58.364;15.550;2023-05-17T12:45:27;0.60;;;0.50;;
20251;SDS011;10284;58.364;15.550;2023-05-17T12:47:53;0.95;;;0.40;;
20251;SDS011;10284;58.364;15.550;2023-05-17T12:50:27;0.88;;;0.47;;
20251;SDS011;10284;58.364;15.550;2023-05-17T12:52:56;0.40;;;0.32;;
20251;SDS011;10284;58.364;15.550;2023-05-17T12:55:22;0.45;;;0.40;;
20251;SDS011;10284;58.364;15.550;2023-05-17T12:57:52;1.17;;;0.45;;
20251;SDS011;10284;58.364;15.550;2023-05-17T13:00:18;0.60;;;0.40;;
20251;SDS011;10284;58.364;15.550;2023-05-17T13:02:44;1.27;;;0.35;;
20251;SDS011;10284;58.364;15.550;2023-05-17T13:05:13;0.95;;;0.50;;
20251;SDS011;10284;58.364;15.550;2023-05-17T13:07:40;1.00;;;0.57;;
20251;SDS011;10284;58.364;15.550;2023-05-17T13:10:18;0.52;;;0.30;;
20251;SDS011;10284;58.364;15.550;2023-05-17T13:12:52;0.95;;;0.40;;
20251;SDS011;10284;58.364;15.550;2023-05-17T13:17:54;0.60;;;0.40;;
20251;SDS011;10284;58.364;15.550;2023-05-17T13:20:19;0.63;;;0.30;;
20251;SDS011;10284;58.364;15.550;2023-05-17T13:22:46;1.05;;;0.50;;
20251;SDS011;10284;58.364;15.550;2023-05-17T13:25:11;1.15;;;0.63;;
20251;SDS011;10284;58.364;15.550;2023-05-17T13:27:37;2.67;;;0.50;;
20251;SDS011;10284;58.364;15.550;2023-05-17T13:30:02;1.80;;;0.65;;
20251;SDS011;10284;58.364;15.550;2023-05-17T13:32:28;1.30;;;0.50;;
20251;SDS011;10284;58.364;15.550;2023-05-17T13:34:53;1.40;;;0.40;;
20251;SDS011;10284;58.364;15.550;2023-05-17T13:37:19;0.63;;;0.30;;
20251;SDS011;10284;58.364;15.550;2023-05-17T13:39:45;0.85;;;0.40;;
20251;SDS011;10284;58.364;15.550;2023-05-17T13:42:11;1.70;;;0.63;;
20251;SDS011;10284;58.364;15.550;2023-05-17T13:44:36;0.70;;;0.32;;
20251;SDS011;10284;58.364;15.550;2023-05-17T13:47:02;0.70;;;0.40;;
20251;SDS011;10284;58.364;15.550;2023-05-17T13:49:27;0.32;;;0.30;;
20251;SDS011;10284;58.364;15.550;2023-05-17T13:51:53;2.65;;;0.40;;
20251;SDS011;10284;58.364;15.550;2023-05-17T13:54:18;4.10;;;0.50;;
20251;SDS011;10284;58.364;15.550;2023-05-17T13:56:44;1.08;;;0.60;;
20251;SDS011;10284;58.364;15.550;2023-05-17T13:59:10;1.55;;;0.50;;
20251;SDS011;10284;58.364;15.550;2023-05-17T14:01:36;0.52;;;0.43;;
20251;SDS011;10284;58.364;15.550;2023-05-17T14:04:01;0.73;;;0.30;;
20251;SDS011;10284;58.364;15.550;2023-05-17T14:06:27;0.28;;;0.28;;
20251;SDS011;10284;58.364;15.550;2023-05-17T14:08:52;1.00;;;0.50;;
20251;SDS011;10284;58.364;15.550;2023-05-17T14:11:19;0.50;;;0.40;;
20251;SDS011;10284;58.364;15.550;2023-05-17T14:13:45;1.95;;;0.40;;
20251;SDS011;10284;58.364;15.550;2023-05-17T14:16:11;1.15;;;0.40;;
20251;SDS011;10284;58.364;15.550;2023-05-17T14:18:37;2.40;;;0.50;;
20251;SDS011;10284;58.364;15.550;2023-05-17T14:21:02;1.30;;;0.43;;
20251;SDS011;10284;58.364;15.550;2023-05-17T14:23:28;0.35;;;0.28;;
20251;SDS011;10284;58.364;15.550;2023-05-17T14:25:53;4.28;;;0.40;;
20251;SDS011;10284;58.364;15.550;2023-05-17T14:28:19;2.42;;;0.65;;
20251;SDS011;10284;58.364;15.550;2023-05-17T14:30:45;0.60;;;0.30;;
20251;SDS011;10284;58.364;15.550;2023-05-17T14:33:11;0.50;;;0.40;;
20251;SDS011;10284;58.364;15.550;2023-05-17T14:35:36;1.10;;;0.40;;
20251;SDS011;10284;58.364;15.550;2023-05-17T14:38:02;3.22;;;0.60;;
20251;SDS011;10284;58.364;15.550;2023-05-17T14:40:27;1.35;;;0.60;;
20251;SDS011;10284;58.364;15.550;2023-05-17T14:42:53;4.75;;;0.68;;
20251;SDS011;10284;58.364;15.550;2023-05-17T14:45:19;1.83;;;0.30;;
20251;SDS011;10284;58.364;15.550;2023-05-17T14:47:44;0.65;;;0.40;;
20251;SDS011;10284;58.364;15.550;2023-05-17T14:50:10;0.70;;;0.30;;